Aviation Digital Data Service (ADDS)

Output produced by METARs form (0938 UTC 17 November 2018)
found at http://www.aviationweather.gov/metar/data/
 
LMML 170915Z 10013KT 9999 FEW015TCU SCT026 19/15 Q1012 NOSIG
TAF LMML 170500Z 1706/1806 07015KT 9999 SCT018 SCT020TCU 
     TEMPO 1706/1806 7000 SHRA BKN020TCU 
     PROB40 1706/1806 VRB20G30KT 4000 TSRA BKN018CB 
     PROB40 
     TEMPO 1712/1806 07018G28KT